createdAt,value
2023-01-13T00:01:16.007Z,6.90
2023-01-13T00:03:43.793Z,6.90
2023-01-13T00:06:14.839Z,6.90
2023-01-13T00:08:41.935Z,7.00
2023-01-13T00:11:09.762Z,6.90
2023-01-13T00:13:38.335Z,6.90
2023-01-13T00:16:07.759Z,6.80
2023-01-13T00:18:36.772Z,6.80
2023-01-13T00:21:06.541Z,6.80
2023-01-13T00:23:34.992Z,6.80
2023-01-13T00:26:04.546Z,6.70
2023-01-13T00:28:31.685Z,6.70
2023-01-13T00:31:16.065Z,6.70
2023-01-13T00:33:43.480Z,6.70
2023-01-13T00:36:13.371Z,6.70
2023-01-13T00:38:42.786Z,6.80
2023-01-13T00:41:14.998Z,6.90
2023-01-13T00:43:41.862Z,6.90
2023-01-13T00:46:09.879Z,6.90
2023-01-13T00:48:37.817Z,7.00
2023-01-13T00:51:14.671Z,7.10
2023-01-13T00:53:44.085Z,7.20
2023-01-13T00:56:38.594Z,7.20
2023-01-13T00:59:07.730Z,7.30
2023-01-13T01:01:34.558Z,7.40
2023-01-13T01:04:01.454Z,7.40
2023-01-13T01:06:28.676Z,7.40
2023-01-13T01:08:56.366Z,7.40
2023-01-13T01:11:28.913Z,7.40
2023-01-13T01:13:57.502Z,7.40
2023-01-13T01:16:26.529Z,7.40
2023-01-13T01:18:54.883Z,7.30
2023-01-13T01:21:23.515Z,7.30
2023-01-13T01:23:50.626Z,7.20
2023-01-13T01:26:20.511Z,7.20
2023-01-13T01:28:47.641Z,7.20
2023-01-13T01:31:16.790Z,7.20
2023-01-13T01:33:44.614Z,7.20
2023-01-13T01:36:12.445Z,7.20
2023-01-13T01:38:39.150Z,7.30
2023-01-13T01:41:06.799Z,7.30
2023-01-13T01:43:59.584Z,7.40
2023-01-13T01:46:32.334Z,7.40
2023-01-13T01:49:08.592Z,7.40
2023-01-13T01:51:42.437Z,7.50
2023-01-13T01:54:12.896Z,7.50
2023-01-13T01:56:43.223Z,7.50
2023-01-13T01:59:11.011Z,7.60
2023-01-13T02:01:39.412Z,7.60
2023-01-13T02:04:16.174Z,7.60
2023-01-13T02:06:44.363Z,7.60
2023-01-13T02:09:11.537Z,7.60
2023-01-13T02:11:56.892Z,7.60
2023-01-13T02:14:26.851Z,7.60
2023-01-13T02:17:15.977Z,7.60
2023-01-13T02:20:07.336Z,7.60
2023-01-13T02:22:53.144Z,7.60
2023-01-13T02:25:43.556Z,7.50
2023-01-13T02:28:38.427Z,7.60
2023-01-13T02:31:33.038Z,7.60
2023-01-13T02:34:15.374Z,7.50
2023-01-13T02:37:14.358Z,7.50
2023-01-13T02:39:41.001Z,7.50
2023-01-13T02:42:28.549Z,7.40
2023-01-13T02:45:02.567Z,7.40
2023-01-13T02:47:32.632Z,7.50
2023-01-13T02:50:06.944Z,7.50
2023-01-13T02:52:43.325Z,7.50
2023-01-13T02:55:26.589Z,7.50
2023-01-13T02:57:54.525Z,7.50
2023-01-13T03:00:23.264Z,7.60
2023-01-13T03:02:50.271Z,7.60
2023-01-13T03:05:17.595Z,7.80
2023-01-13T03:08:21.807Z,7.80
2023-01-13T03:11:07.758Z,7.80
2023-01-13T03:13:58.592Z,7.80
2023-01-13T03:16:40.841Z,7.80
2023-01-13T03:19:22.243Z,7.80
2023-01-13T03:21:53.328Z,7.80
2023-01-13T03:24:43.038Z,7.80
2023-01-13T03:27:16.464Z,7.80
2023-01-13T03:29:49.331Z,7.80
2023-01-13T03:32:42.539Z,7.70
2023-01-13T03:35:13.264Z,7.70
2023-01-13T03:37:45.366Z,7.60
2023-01-13T03:40:18.687Z,7.60
2023-01-13T03:43:11.848Z,7.60
2023-01-13T03:45:40.245Z,7.50
2023-01-13T03:48:15.089Z,7.50
2023-01-13T03:50:47.371Z,7.40
2023-01-13T03:53:28.094Z,7.40
2023-01-13T03:56:07.942Z,7.40
2023-01-13T03:58:41.288Z,7.30
2023-01-13T04:01:22.320Z,7.40
2023-01-13T04:04:06.072Z,7.30
2023-01-13T04:07:03.631Z,7.30
2023-01-13T04:09:37.188Z,7.30
2023-01-13T04:12:58.444Z,7.20
2023-01-13T04:15:27.949Z,7.20
2023-01-13T04:18:01.350Z,7.10
2023-01-13T04:20:28.301Z,7.10
2023-01-13T04:22:54.991Z,7.10
2023-01-13T04:25:21.733Z,7.10
2023-01-13T04:27:48.369Z,7.10
2023-01-13T04:30:15.237Z,7.10
2023-01-13T04:32:42.067Z,7.10
2023-01-13T04:35:09.218Z,7.00
2023-01-13T04:37:36.150Z,7.00
2023-01-13T04:40:03.445Z,7.00
2023-01-13T04:42:30.211Z,6.90
2023-01-13T04:44:56.824Z,6.90
2023-01-13T04:47:23.607Z,7.00
2023-01-13T04:49:50.168Z,7.00
2023-01-13T04:52:16.961Z,7.10
2023-01-13T04:54:43.626Z,7.20
2023-01-13T04:57:10.374Z,7.20
2023-01-13T04:59:37.007Z,7.20
2023-01-13T05:02:04.010Z,7.20
2023-01-13T05:04:30.834Z,7.20
2023-01-13T05:06:58.700Z,7.10
2023-01-13T05:09:25.399Z,7.10
2023-01-13T05:12:10.746Z,7.10
2023-01-13T05:14:56.680Z,7.00
2023-01-13T05:17:25.259Z,6.90
2023-01-13T05:19:51.946Z,6.90
2023-01-13T05:22:37.501Z,6.80
2023-01-13T05:25:23.070Z,6.80
2023-01-13T05:27:50.539Z,6.70
2023-01-13T05:30:17.667Z,6.70
2023-01-13T05:32:44.364Z,6.60
2023-01-13T05:35:11.266Z,6.60
2023-01-13T05:37:38.319Z,6.60
2023-01-13T05:40:24.571Z,6.60
2023-01-13T05:43:25.753Z,6.50
2023-01-13T05:46:09.615Z,6.50
2023-01-13T05:48:39.690Z,6.40
2023-01-13T05:51:09.324Z,6.40
2023-01-13T05:53:36.684Z,6.40
2023-01-13T05:56:07.839Z,6.40
2023-01-13T05:58:35.265Z,6.40
2023-01-13T06:01:09.409Z,6.50
2023-01-13T06:03:36.946Z,6.50
2023-01-13T06:06:04.632Z,6.50
2023-01-13T06:08:32.167Z,6.50
2023-01-13T06:10:59.614Z,6.50
2023-01-13T06:13:26.560Z,6.50
2023-01-13T06:15:58.119Z,6.60
2023-01-13T06:18:25.655Z,6.60
2023-01-13T06:20:52.366Z,6.60
2023-01-13T06:23:19.443Z,6.60
2023-01-13T06:26:14.235Z,6.60
2023-01-13T06:28:40.932Z,6.60
2023-01-13T06:31:09.995Z,6.60
2023-01-13T06:33:42.539Z,6.50
2023-01-13T06:36:22.202Z,6.50
2023-01-13T06:38:53.088Z,6.50
2023-01-13T06:41:41.057Z,6.50
2023-01-13T06:44:07.631Z,6.50
2023-01-13T06:46:35.599Z,6.50
2023-01-13T06:49:02.414Z,6.60
2023-01-13T06:51:28.973Z,6.60
2023-01-13T06:53:55.755Z,6.60
2023-01-13T06:56:22.319Z,6.60
2023-01-13T06:58:48.962Z,6.70
2023-01-13T07:01:15.869Z,6.80
2023-01-13T07:03:42.732Z,6.80
2023-01-13T07:06:09.347Z,6.80
2023-01-13T07:08:36.109Z,6.90
2023-01-13T07:11:03.111Z,6.90
2023-01-13T07:13:48.329Z,6.90
2023-01-13T07:16:15.192Z,6.80
2023-01-13T07:18:41.912Z,6.80
2023-01-13T07:21:10.790Z,6.80
2023-01-13T07:23:40.260Z,6.90
2023-01-13T07:26:08.718Z,6.90
2023-01-13T07:28:35.830Z,6.90
2023-01-13T07:31:02.947Z,6.90
2023-01-13T07:33:33.343Z,7.00
2023-01-13T07:36:03.428Z,7.00
2023-01-13T07:38:31.039Z,7.00
2023-01-13T07:40:58.327Z,7.00
2023-01-13T07:43:33.902Z,7.10
2023-01-13T07:46:06.141Z,7.10
2023-01-13T07:48:34.272Z,7.10
2023-01-13T07:51:06.182Z,7.20
2023-01-13T07:53:32.988Z,7.20
2023-01-13T07:56:00.124Z,7.20
2023-01-13T07:58:27.868Z,7.20
2023-01-13T08:00:55.272Z,7.20
2023-01-13T08:03:22.973Z,7.20
2023-01-13T08:05:50.386Z,7.20
2023-01-13T08:08:18.367Z,7.20
2023-01-13T08:10:45.151Z,7.20
2023-01-13T08:13:18.168Z,7.20
2023-01-13T08:15:46.098Z,7.20
2023-01-13T08:18:13.382Z,7.30
2023-01-13T08:20:40.188Z,7.30
2023-01-13T08:23:07.667Z,7.30
2023-01-13T08:25:34.563Z,7.20
2023-01-13T08:28:01.255Z,7.30
2023-01-13T08:30:28.565Z,7.30
2023-01-13T08:32:55.475Z,7.30
2023-01-13T08:35:22.358Z,7.40
2023-01-13T08:37:49.735Z,7.40
2023-01-13T08:40:17.295Z,7.40
2023-01-13T08:42:44.048Z,7.50
2023-01-13T08:45:10.870Z,7.60
2023-01-13T08:47:37.588Z,7.60
2023-01-13T08:50:05.051Z,7.70
2023-01-13T08:52:32.124Z,7.70
2023-01-13T08:54:59.153Z,7.80
2023-01-13T08:57:25.870Z,7.90
2023-01-13T08:59:52.520Z,7.90
2023-01-13T09:02:21.399Z,8.00
2023-01-13T09:04:48.723Z,8.00
2023-01-13T09:07:16.488Z,8.10
2023-01-13T09:09:43.458Z,8.10
2023-01-13T09:12:34.263Z,8.20
2023-01-13T09:15:02.138Z,8.20
2023-01-13T09:17:28.917Z,8.20
2023-01-13T09:19:55.520Z,8.20
2023-01-13T09:22:22.323Z,8.20
2023-01-13T09:24:48.934Z,8.20
2023-01-13T09:27:15.843Z,8.20
2023-01-13T09:29:43.302Z,8.20
2023-01-13T09:32:14.461Z,8.20
2023-01-13T09:34:59.946Z,8.20
2023-01-13T09:37:36.487Z,8.30
2023-01-13T09:40:06.637Z,8.30
2023-01-13T09:43:05.916Z,8.40
2023-01-13T09:45:52.638Z,8.50
2023-01-13T09:48:30.233Z,8.50
2023-01-13T09:51:14.473Z,8.70
2023-01-13T09:53:49.617Z,8.80
2023-01-13T09:56:16.520Z,9.10
2023-01-13T09:58:45.464Z,9.50
2023-01-13T10:01:44.644Z,10.00
2023-01-13T10:04:13.915Z,10.60
2023-01-13T10:06:44.188Z,11.20
2023-01-13T10:09:21.387Z,11.70
2023-01-13T10:12:08.026Z,12.20
2023-01-13T10:14:40.447Z,12.50
2023-01-13T10:17:29.283Z,12.70
2023-01-13T10:20:12.045Z,12.90
2023-01-13T10:22:47.780Z,13.10
2023-01-13T10:25:48.702Z,13.30
2023-01-13T10:28:19.559Z,13.40
2023-01-13T10:30:47.648Z,13.40
2023-01-13T10:33:20.465Z,13.30
2023-01-13T10:35:53.392Z,13.00
2023-01-13T10:38:24.060Z,12.60
2023-01-13T10:40:54.370Z,12.10
2023-01-13T10:43:21.753Z,11.70
2023-01-13T10:45:59.829Z,11.30
2023-01-13T10:48:51.888Z,10.80
2023-01-13T10:51:23.360Z,10.40
2023-01-13T10:53:56.767Z,10.10
2023-01-13T10:56:26.434Z,9.80
2023-01-13T10:59:08.747Z,9.60
2023-01-13T11:01:35.658Z,9.50
2023-01-13T11:04:15.608Z,9.40
2023-01-13T11:06:46.935Z,9.40
2023-01-13T11:09:20.648Z,9.60
2023-01-13T11:11:49.543Z,10.00
2023-01-13T11:14:39.153Z,10.20
2023-01-13T11:17:35.504Z,10.20
2023-01-13T11:20:31.681Z,10.10
2023-01-13T11:23:02.923Z,10.00
2023-01-13T11:25:42.164Z,9.90
2023-01-13T11:28:46.544Z,9.80
2023-01-13T11:31:25.463Z,9.70
2023-01-13T11:34:25.533Z,9.60
2023-01-13T11:36:55.186Z,9.50
2023-01-13T11:39:46.780Z,9.50
2023-01-13T11:42:37.989Z,9.50
2023-01-13T11:45:26.243Z,9.40
2023-01-13T11:47:57.608Z,9.40
2023-01-13T11:50:48.145Z,9.40
2023-01-13T11:53:35.999Z,9.40
2023-01-13T11:56:19.267Z,9.30
2023-01-13T11:59:10.293Z,9.20
2023-01-13T12:02:01.016Z,9.20
2023-01-13T12:04:42.879Z,9.10
2023-01-13T12:07:17.347Z,9.00
2023-01-13T12:09:55.283Z,8.90
2023-01-13T12:12:34.652Z,8.90
2023-01-13T12:15:24.004Z,8.80
2023-01-13T12:18:34.731Z,8.70
2023-01-13T12:21:20.611Z,8.60
2023-01-13T12:23:51.809Z,8.60
2023-01-13T12:26:18.626Z,8.60
2023-01-13T12:28:53.718Z,8.50
2023-01-13T12:31:22.770Z,8.40
2023-01-13T12:34:09.176Z,8.30
2023-01-13T12:36:42.212Z,8.30
2023-01-13T12:39:29.599Z,8.20
2023-01-13T12:42:23.052Z,8.10
2023-01-13T12:45:07.867Z,8.00
2023-01-13T12:47:39.992Z,7.90
2023-01-13T12:50:22.433Z,7.80
2023-01-13T12:52:57.235Z,7.60
2023-01-13T12:55:30.948Z,7.40
2023-01-13T12:58:06.772Z,7.30
2023-01-13T13:00:38.129Z,7.10
2023-01-13T13:03:09.970Z,6.90
2023-01-13T13:05:42.459Z,6.80
2023-01-13T13:08:35.538Z,6.60
2023-01-13T13:11:33.586Z,6.60
2023-01-13T13:14:01.789Z,6.50
2023-01-13T13:16:29.735Z,6.50
2023-01-13T13:19:18.394Z,6.50
2023-01-13T13:22:06.657Z,6.50
2023-01-13T13:24:33.664Z,6.50
2023-01-13T13:27:36.093Z,6.50
2023-01-13T13:30:20.864Z,6.50
2023-01-13T13:33:11.549Z,6.50
2023-01-13T13:36:11.071Z,6.40
2023-01-13T13:39:14.458Z,6.30
2023-01-13T13:42:05.271Z,6.20
2023-01-13T13:44:59.207Z,6.10
2023-01-13T13:47:34.155Z,6.00
2023-01-13T13:50:07.278Z,5.90
2023-01-13T13:52:42.483Z,5.80
2023-01-13T13:55:19.680Z,5.70
2023-01-13T13:57:49.808Z,5.70
2023-01-13T14:00:19.432Z,5.60
2023-01-13T14:02:50.763Z,5.60
2023-01-13T14:05:24.456Z,5.60
2023-01-13T14:08:07.596Z,5.60
2023-01-13T14:10:38.403Z,5.50
2023-01-13T14:13:15.241Z,5.50
2023-01-13T14:15:42.321Z,5.50
2023-01-13T14:18:19.070Z,5.60
2023-01-13T14:20:58.497Z,5.60
2023-01-13T14:23:31.834Z,5.60
2023-01-13T14:26:08.572Z,5.60
2023-01-13T14:28:40.119Z,5.60
2023-01-13T14:31:09.089Z,5.70
2023-01-13T14:33:41.312Z,5.70
2023-01-13T14:36:16.458Z,5.70
2023-01-13T14:38:49.466Z,5.70
2023-01-13T14:41:23.043Z,5.70
2023-01-13T14:43:54.076Z,5.70
2023-01-13T14:46:23.156Z,5.70
2023-01-13T14:48:59.118Z,5.70
2023-01-13T14:51:28.643Z,5.70
2023-01-13T14:53:57.002Z,5.70
2023-01-13T14:56:47.434Z,5.70
2023-01-13T14:59:36.203Z,5.60
2023-01-13T15:02:29.256Z,5.60
2023-01-13T15:05:24.894Z,5.60
2023-01-13T15:08:17.474Z,5.60
2023-01-13T15:11:01.974Z,5.60
2023-01-13T15:13:41.191Z,5.60
2023-01-13T15:16:22.024Z,5.50
2023-01-13T15:18:49.027Z,5.60
2023-01-13T15:21:16.986Z,5.60
2023-01-13T15:23:44.214Z,5.60
2023-01-13T15:26:26.587Z,5.60
2023-01-13T15:28:55.707Z,5.60
2023-01-13T15:31:23.266Z,5.60
2023-01-13T15:33:50.798Z,5.60
2023-01-13T15:36:20.078Z,5.60
2023-01-13T15:38:46.885Z,5.60
2023-01-13T15:41:13.976Z,5.60
2023-01-13T15:43:59.311Z,5.70
2023-01-13T15:46:38.360Z,5.60
2023-01-13T15:49:12.762Z,5.70
2023-01-13T15:51:40.183Z,5.70
2023-01-13T15:54:08.494Z,5.70
2023-01-13T15:56:36.849Z,5.70
2023-01-13T15:59:05.172Z,5.70
2023-01-13T16:01:32.028Z,5.70
2023-01-13T16:03:58.718Z,5.90
2023-01-13T16:06:32.912Z,6.00
2023-01-13T16:08:59.777Z,6.00
2023-01-13T16:11:26.910Z,6.10
2023-01-13T16:13:53.568Z,6.10
2023-01-13T16:16:28.450Z,6.10
2023-01-13T16:18:56.223Z,6.10
2023-01-13T16:21:23.767Z,6.10
2023-01-13T16:23:51.817Z,6.10
2023-01-13T16:26:27.630Z,6.10
2023-01-13T16:28:56.616Z,6.10
2023-01-13T16:31:29.071Z,6.10
2023-01-13T16:33:56.441Z,6.10
2023-01-13T16:36:23.438Z,6.00
2023-01-13T16:38:52.162Z,6.00
2023-01-13T16:41:20.624Z,6.00
2023-01-13T16:43:48.308Z,6.00
2023-01-13T16:46:17.151Z,5.90
2023-01-13T16:48:44.148Z,5.80
2023-01-13T16:51:10.795Z,5.60
2023-01-13T16:53:37.780Z,5.50
2023-01-13T16:56:11.523Z,5.40
2023-01-13T16:58:38.393Z,5.30
2023-01-13T17:01:05.252Z,5.10
2023-01-13T17:03:35.774Z,5.00
2023-01-13T17:06:03.731Z,4.90
2023-01-13T17:08:30.560Z,4.80
2023-01-13T17:10:57.267Z,4.80
2023-01-13T17:13:24.626Z,4.80
2023-01-13T17:15:51.356Z,4.70
2023-01-13T17:18:18.090Z,4.70
2023-01-13T17:20:44.852Z,4.60
2023-01-13T17:23:11.494Z,4.60
2023-01-13T17:25:38.262Z,4.50
2023-01-13T17:28:05.102Z,4.50
2023-01-13T17:30:31.980Z,4.50
2023-01-13T17:32:58.673Z,4.40
2023-01-13T17:35:25.502Z,4.30
2023-01-13T17:37:53.385Z,4.30
2023-01-13T17:40:20.542Z,4.20
2023-01-13T17:42:47.233Z,4.20
2023-01-13T17:45:13.949Z,4.10
2023-01-13T17:47:40.757Z,4.10
2023-01-13T17:50:07.781Z,4.10
2023-01-13T17:52:35.095Z,4.10
2023-01-13T17:55:01.788Z,4.10
2023-01-13T17:57:28.521Z,4.10
2023-01-13T17:59:55.303Z,4.10
2023-01-13T18:02:22.101Z,4.10
2023-01-13T18:04:48.935Z,4.10
2023-01-13T18:07:15.704Z,4.20
2023-01-13T18:09:42.808Z,4.20
2023-01-13T18:12:10.506Z,4.20
2023-01-13T18:14:37.192Z,4.20
2023-01-13T18:17:04.082Z,4.30
2023-01-13T18:19:49.413Z,4.30
2023-01-13T18:22:35.385Z,4.30
2023-01-13T18:25:25.540Z,4.40
2023-01-13T18:27:52.411Z,4.40
2023-01-13T18:30:19.119Z,4.40
2023-01-13T18:32:45.913Z,4.40
2023-01-13T18:35:12.612Z,4.40
2023-01-13T18:37:42.106Z,4.30
2023-01-13T18:40:12.347Z,4.30
2023-01-13T18:42:51.463Z,4.20
2023-01-13T18:45:29.468Z,4.20
2023-01-13T18:47:59.599Z,4.20
2023-01-13T18:50:27.142Z,4.10
2023-01-13T18:52:54.117Z,4.10
2023-01-13T18:55:21.423Z,4.10
2023-01-13T18:57:48.651Z,4.00
2023-01-13T19:00:19.054Z,4.00
2023-01-13T19:02:47.305Z,4.00
2023-01-13T19:05:14.365Z,3.90
2023-01-13T19:07:43.249Z,3.90
2023-01-13T19:10:12.805Z,4.00
2023-01-13T19:12:39.640Z,3.90
2023-01-13T19:15:06.550Z,3.90
2023-01-13T19:17:34.825Z,4.00
2023-01-13T19:20:02.191Z,4.00
2023-01-13T19:22:32.609Z,4.10
2023-01-13T19:25:00.604Z,4.10
2023-01-13T19:27:28.190Z,4.10
2023-01-13T19:29:58.144Z,4.20
2023-01-13T19:32:25.122Z,4.20
2023-01-13T19:34:53.145Z,4.20
2023-01-13T19:37:19.930Z,4.20
2023-01-13T19:39:46.630Z,4.30
2023-01-13T19:42:32.379Z,4.30
2023-01-13T19:45:17.912Z,4.30
2023-01-13T19:47:45.904Z,4.30
2023-01-13T19:50:14.110Z,4.30
2023-01-13T19:52:42.064Z,4.40
2023-01-13T19:55:11.595Z,4.40
2023-01-13T19:57:41.141Z,4.40
2023-01-13T20:00:10.306Z,4.40
2023-01-13T20:02:47.445Z,4.40
2023-01-13T20:05:18.096Z,4.50
2023-01-13T20:07:44.961Z,4.50
2023-01-13T20:10:13.159Z,4.50
2023-01-13T20:12:41.702Z,4.50
2023-01-13T20:15:09.321Z,4.60
2023-01-13T20:17:36.323Z,4.60
2023-01-13T20:20:04.216Z,4.60
2023-01-13T20:22:30.988Z,4.60
2023-01-13T20:24:57.616Z,4.60
2023-01-13T20:27:24.462Z,4.60
2023-01-13T20:29:51.103Z,4.70
2023-01-13T20:32:17.868Z,4.60
2023-01-13T20:34:44.872Z,4.60
2023-01-13T20:37:11.678Z,4.70
2023-01-13T20:39:40.131Z,4.70
2023-01-13T20:42:25.528Z,4.70
2023-01-13T20:44:52.420Z,4.80
2023-01-13T20:47:19.195Z,4.80
2023-01-13T20:49:45.981Z,4.70
2023-01-13T20:52:12.772Z,4.60
2023-01-13T20:54:40.515Z,4.40
2023-01-13T20:57:09.981Z,4.20
2023-01-13T20:59:38.030Z,4.10
2023-01-13T21:02:07.422Z,3.90
2023-01-13T21:04:34.433Z,3.80
2023-01-13T21:07:01.260Z,3.70
2023-01-13T21:09:28.105Z,3.60
2023-01-13T21:12:13.548Z,3.60
2023-01-13T21:14:59.128Z,3.50
2023-01-13T21:17:44.734Z,3.50
2023-01-13T21:20:13.461Z,3.50
2023-01-13T21:22:44.205Z,3.40
2023-01-13T21:25:12.364Z,3.40
2023-01-13T21:27:39.663Z,3.40
2023-01-13T21:30:07.280Z,3.40
2023-01-13T21:32:34.259Z,3.40
2023-01-13T21:35:01.971Z,3.40
2023-01-13T21:37:28.682Z,3.30
2023-01-13T21:39:55.487Z,3.30
2023-01-13T21:42:41.331Z,3.30
2023-01-13T21:45:28.855Z,3.20
2023-01-13T21:47:56.090Z,3.20
2023-01-13T21:50:28.229Z,3.10
2023-01-13T21:52:55.665Z,3.10
2023-01-13T21:55:25.286Z,3.10
2023-01-13T21:57:57.477Z,3.00
2023-01-13T22:00:26.765Z,3.00
2023-01-13T22:02:54.345Z,3.00
2023-01-13T22:05:23.580Z,3.00
2023-01-13T22:07:51.165Z,3.00
2023-01-13T22:10:26.566Z,2.90
2023-01-13T22:12:58.884Z,2.90
2023-01-13T22:15:29.036Z,2.90
2023-01-13T22:17:56.957Z,3.00
2023-01-13T22:20:23.937Z,2.90
2023-01-13T22:22:50.557Z,2.90
2023-01-13T22:25:19.956Z,3.00
2023-01-13T22:27:48.222Z,3.00
2023-01-13T22:30:21.596Z,3.00
2023-01-13T22:32:48.765Z,2.90
2023-01-13T22:35:16.295Z,3.00
2023-01-13T22:37:43.382Z,3.00
2023-01-13T22:40:12.123Z,3.00
2023-01-13T22:42:40.444Z,3.00
2023-01-13T22:45:12.522Z,3.00
2023-01-13T22:47:39.395Z,3.00
2023-01-13T22:50:06.902Z,3.10
2023-01-13T22:52:34.453Z,3.20
2023-01-13T22:55:01.728Z,3.30
2023-01-13T22:57:42.568Z,3.40
2023-01-13T23:00:14.977Z,3.40
2023-01-13T23:02:41.900Z,3.50
2023-01-13T23:05:08.907Z,3.60
2023-01-13T23:07:36.074Z,3.60
2023-01-13T23:10:03.667Z,3.70
2023-01-13T23:12:30.360Z,3.70
2023-01-13T23:14:57.098Z,3.70
2023-01-13T23:17:23.852Z,3.80
2023-01-13T23:19:50.530Z,3.70
2023-01-13T23:22:17.177Z,3.70
2023-01-13T23:24:43.904Z,3.70
2023-01-13T23:27:10.712Z,3.70
2023-01-13T23:29:37.719Z,3.70
2023-01-13T23:32:04.831Z,3.60
2023-01-13T23:34:31.815Z,3.60
2023-01-13T23:36:58.515Z,3.60
2023-01-13T23:39:25.395Z,3.50
2023-01-13T23:41:52.223Z,3.50
2023-01-13T23:44:19.106Z,3.40
2023-01-13T23:46:45.866Z,3.40
2023-01-13T23:49:12.506Z,3.40
2023-01-13T23:51:39.351Z,3.40
2023-01-13T23:54:06.399Z,3.30
2023-01-13T23:56:34.682Z,3.30
2023-01-13T23:59:01.385Z,3.20
